sensor_id;sensor_type;location;lat;lon;timestamp;P1;durP1;ratioP1;P2;durP2;ratioP2
19554;SDS011;9924;50.828;6.440;2022-11-21T00:02:28;17.65;;;3.13;;
19554;SDS011;9924;50.828;6.440;2022-11-21T00:05:13;14.50;;;3.33;;
19554;SDS011;9924;50.828;6.440;2022-11-21T00:07:58;12.52;;;3.30;;
19554;SDS011;9924;50.828;6.440;2022-11-21T00:10:43;15.30;;;2.72;;
19554;SDS011;9924;50.828;6.440;2022-11-21T00:13:28;12.25;;;3.58;;
19554;SDS011;9924;50.828;6.440;2022-11-21T00:16:14;10.55;;;3.10;;
19554;SDS011;9924;50.828;6.440;2022-11-21T00:18:59;16.48;;;3.75;;
19554;SDS011;9924;50.828;6.440;2022-11-21T00:21:45;16.80;;;2.90;;
19554;SDS011;9924;50.828;6.440;2022-11-21T00:24:30;20.50;;;3.72;;
19554;SDS011;9924;50.828;6.440;2022-11-21T00:27:14;11.75;;;3.03;;
19554;SDS011;9924;50.828;6.440;2022-11-21T00:29:59;13.07;;;3.58;;
19554;SDS011;9924;50.828;6.440;2022-11-21T00:32:44;13.80;;;2.83;;
19554;SDS011;9924;50.828;6.440;2022-11-21T00:35:29;14.50;;;3.78;;
19554;SDS011;9924;50.828;6.440;2022-11-21T00:38:15;12.32;;;3.03;;
19554;SDS011;9924;50.828;6.440;2022-11-21T00:41:00;21.25;;;3.28;;
19554;SDS011;9924;50.828;6.440;2022-11-21T00:43:48;17.35;;;3.28;;
19554;SDS011;9924;50.828;6.440;2022-11-21T00:46:34;16.13;;;3.40;;
19554;SDS011;9924;50.828;6.440;2022-11-21T00:49:19;14.18;;;3.92;;
19554;SDS011;9924;50.828;6.440;2022-11-21T00:52:04;11.73;;;3.05;;
19554;SDS011;9924;50.828;6.440;2022-11-21T00:54:48;14.52;;;3.22;;
19554;SDS011;9924;50.828;6.440;2022-11-21T00:57:33;16.20;;;3.30;;
19554;SDS011;9924;50.828;6.440;2022-11-21T01:00:21;16.25;;;3.30;;
19554;SDS011;9924;50.828;6.440;2022-11-21T01:03:05;9.95;;;3.10;;
19554;SDS011;9924;50.828;6.440;2022-11-21T01:05:50;15.68;;;3.00;;
19554;SDS011;9924;50.828;6.440;2022-11-21T01:08:37;14.68;;;3.08;;
19554;SDS011;9924;50.828;6.440;2022-11-21T01:11:23;7.28;;;2.70;;
19554;SDS011;9924;50.828;6.440;2022-11-21T01:14:08;14.10;;;3.35;;
19554;SDS011;9924;50.828;6.440;2022-11-21T01:16:53;8.85;;;2.35;;
19554;SDS011;9924;50.828;6.440;2022-11-21T01:19:37;8.07;;;2.33;;
19554;SDS011;9924;50.828;6.440;2022-11-21T01:22:22;12.23;;;2.63;;
19554;SDS011;9924;50.828;6.440;2022-11-21T01:25:06;7.28;;;2.97;;
19554;SDS011;9924;50.828;6.440;2022-11-21T01:27:51;16.40;;;2.70;;
19554;SDS011;9924;50.828;6.440;2022-11-21T01:30:35;13.27;;;2.70;;
19554;SDS011;9924;50.828;6.440;2022-11-21T01:33:20;12.43;;;2.78;;
19554;SDS011;9924;50.828;6.440;2022-11-21T01:36:05;12.40;;;2.65;;
19554;SDS011;9924;50.828;6.440;2022-11-21T01:38:52;10.25;;;2.60;;
19554;SDS011;9924;50.828;6.440;2022-11-21T01:41:43;9.73;;;2.60;;
19554;SDS011;9924;50.828;6.440;2022-11-21T01:47:37;11.85;;;2.70;;
19554;SDS011;9924;50.828;6.440;2022-11-21T01:50:21;8.20;;;1.88;;
19554;SDS011;9924;50.828;6.440;2022-11-21T01:53:05;6.13;;;2.15;;
19554;SDS011;9924;50.828;6.440;2022-11-21T01:55:51;7.88;;;2.40;;
19554;SDS011;9924;50.828;6.440;2022-11-21T01:58:36;7.50;;;2.13;;
19554;SDS011;9924;50.828;6.440;2022-11-21T02:01:23;8.60;;;2.50;;
19554;SDS011;9924;50.828;6.440;2022-11-21T02:04:07;14.20;;;3.33;;
19554;SDS011;9924;50.828;6.440;2022-11-21T02:06:53;8.80;;;2.75;;
19554;SDS011;9924;50.828;6.440;2022-11-21T02:09:39;13.48;;;2.63;;
19554;SDS011;9924;50.828;6.440;2022-11-21T02:13:08;11.65;;;2.83;;
19554;SDS011;9924;50.828;6.440;2022-11-21T02:15:35;10.30;;;2.42;;
19554;SDS011;9924;50.828;6.440;2022-11-21T02:18:19;9.75;;;2.25;;
19554;SDS011;9924;50.828;6.440;2022-11-21T02:21:28;9.82;;;2.30;;
19554;SDS011;9924;50.828;6.440;2022-11-21T02:24:23;9.25;;;1.83;;
19554;SDS011;9924;50.828;6.440;2022-11-21T02:27:18;7.57;;;2.05;;
19554;SDS011;9924;50.828;6.440;2022-11-21T02:30:05;8.35;;;2.20;;
19554;SDS011;9924;50.828;6.440;2022-11-21T02:32:51;8.20;;;1.80;;
19554;SDS011;9924;50.828;6.440;2022-11-21T02:35:36;6.57;;;2.40;;
19554;SDS011;9924;50.828;6.440;2022-11-21T02:38:26;7.05;;;2.20;;
19554;SDS011;9924;50.828;6.440;2022-11-21T02:41:18;10.70;;;2.72;;
19554;SDS011;9924;50.828;6.440;2022-11-21T02:44:14;13.23;;;2.15;;
19554;SDS011;9924;50.828;6.440;2022-11-21T02:47:05;7.97;;;2.42;;
19554;SDS011;9924;50.828;6.440;2022-11-21T02:53:03;8.73;;;2.30;;
19554;SDS011;9924;50.828;6.440;2022-11-21T02:55:49;10.13;;;2.58;;
19554;SDS011;9924;50.828;6.440;2022-11-21T02:58:34;7.93;;;3.03;;
19554;SDS011;9924;50.828;6.440;2022-11-21T03:01:18;12.43;;;3.10;;
19554;SDS011;9924;50.828;6.440;2022-11-21T03:04:03;6.75;;;2.50;;
19554;SDS011;9924;50.828;6.440;2022-11-21T03:06:47;7.13;;;2.80;;
19554;SDS011;9924;50.828;6.440;2022-11-21T03:09:32;6.93;;;2.70;;
19554;SDS011;9924;50.828;6.440;2022-11-21T03:12:18;9.35;;;3.22;;
19554;SDS011;9924;50.828;6.440;2022-11-21T03:15:03;9.98;;;4.22;;
19554;SDS011;9924;50.828;6.440;2022-11-21T03:17:49;10.90;;;4.38;;
19554;SDS011;9924;50.828;6.440;2022-11-21T03:20:34;14.07;;;4.82;;
19554;SDS011;9924;50.828;6.440;2022-11-21T03:23:19;11.05;;;4.80;;
19554;SDS011;9924;50.828;6.440;2022-11-21T03:26:04;16.05;;;5.35;;
19554;SDS011;9924;50.828;6.440;2022-11-21T03:28:48;11.52;;;5.63;;
19554;SDS011;9924;50.828;6.440;2022-11-21T03:31:33;12.50;;;6.07;;
19554;SDS011;9924;50.828;6.440;2022-11-21T03:34:17;13.98;;;6.57;;
19554;SDS011;9924;50.828;6.440;2022-11-21T03:37:02;16.08;;;6.45;;
19554;SDS011;9924;50.828;6.440;2022-11-21T03:39:48;10.40;;;6.60;;
19554;SDS011;9924;50.828;6.440;2022-11-21T03:42:36;15.82;;;7.15;;
19554;SDS011;9924;50.828;6.440;2022-11-21T03:45:20;17.65;;;6.82;;
19554;SDS011;9924;50.828;6.440;2022-11-21T03:48:05;14.93;;;6.97;;
19554;SDS011;9924;50.828;6.440;2022-11-21T03:50:50;13.98;;;7.68;;
19554;SDS011;9924;50.828;6.440;2022-11-21T03:53:34;13.85;;;7.15;;
19554;SDS011;9924;50.828;6.440;2022-11-21T03:56:19;18.67;;;6.93;;
19554;SDS011;9924;50.828;6.440;2022-11-21T03:59:04;16.05;;;6.82;;
19554;SDS011;9924;50.828;6.440;2022-11-21T04:01:49;14.43;;;7.93;;
19554;SDS011;9924;50.828;6.440;2022-11-21T04:04:36;16.83;;;7.05;;
19554;SDS011;9924;50.828;6.440;2022-11-21T04:07:21;9.27;;;6.10;;
19554;SDS011;9924;50.828;6.440;2022-11-21T04:10:05;19.08;;;6.70;;
19554;SDS011;9924;50.828;6.440;2022-11-21T04:12:50;16.20;;;6.38;;
19554;SDS011;9924;50.828;6.440;2022-11-21T04:15:36;12.63;;;6.63;;
19554;SDS011;9924;50.828;6.440;2022-11-21T04:18:21;17.45;;;6.82;;
19554;SDS011;9924;50.828;6.440;2022-11-21T04:21:06;14.80;;;6.93;;
19554;SDS011;9924;50.828;6.440;2022-11-21T04:23:51;14.73;;;7.25;;
19554;SDS011;9924;50.828;6.440;2022-11-21T04:26:36;15.57;;;6.63;;
19554;SDS011;9924;50.828;6.440;2022-11-21T04:29:20;14.73;;;7.38;;
19554;SDS011;9924;50.828;6.440;2022-11-21T04:32:06;15.98;;;7.15;;
19554;SDS011;9924;50.828;6.440;2022-11-21T04:34:50;15.20;;;7.15;;
19554;SDS011;9924;50.828;6.440;2022-11-21T04:37:37;20.17;;;8.00;;
19554;SDS011;9924;50.828;6.440;2022-11-21T04:40:22;15.15;;;7.32;;
19554;SDS011;9924;50.828;6.440;2022-11-21T04:43:07;19.73;;;6.60;;
19554;SDS011;9924;50.828;6.440;2022-11-21T04:45:51;14.82;;;7.15;;
19554;SDS011;9924;50.828;6.440;2022-11-21T04:48:36;15.55;;;6.63;;
19554;SDS011;9924;50.828;6.440;2022-11-21T04:51:20;15.35;;;6.32;;
19554;SDS011;9924;50.828;6.440;2022-11-21T04:54:04;19.40;;;6.30;;
19554;SDS011;9924;50.828;6.440;2022-11-21T04:56:49;17.63;;;7.13;;
19554;SDS011;9924;50.828;6.440;2022-11-21T04:59:34;9.70;;;6.70;;
19554;SDS011;9924;50.828;6.440;2022-11-21T05:02:22;15.57;;;6.50;;
19554;SDS011;9924;50.828;6.440;2022-11-21T05:05:07;12.23;;;5.75;;
19554;SDS011;9924;50.828;6.440;2022-11-21T05:07:52;15.18;;;6.35;;
19554;SDS011;9924;50.828;6.440;2022-11-21T05:10:37;16.95;;;6.35;;
19554;SDS011;9924;50.828;6.440;2022-11-21T05:13:52;11.43;;;6.13;;
19554;SDS011;9924;50.828;6.440;2022-11-21T05:16:37;11.63;;;6.57;;
19554;SDS011;9924;50.828;6.440;2022-11-21T05:19:21;18.67;;;7.10;;
19554;SDS011;9924;50.828;6.440;2022-11-21T05:22:06;12.57;;;6.25;;
19554;SDS011;9924;50.828;6.440;2022-11-21T05:24:51;11.63;;;6.85;;
19554;SDS011;9924;50.828;6.440;2022-11-21T05:27:36;14.05;;;6.32;;
19554;SDS011;9924;50.828;6.440;2022-11-21T05:30:20;10.43;;;6.30;;
19554;SDS011;9924;50.828;6.440;2022-11-21T05:33:05;12.13;;;5.80;;
19554;SDS011;9924;50.828;6.440;2022-11-21T05:35:50;13.88;;;5.63;;
19554;SDS011;9924;50.828;6.440;2022-11-21T05:38:35;11.60;;;6.38;;
19554;SDS011;9924;50.828;6.440;2022-11-21T05:41:19;12.90;;;6.22;;
19554;SDS011;9924;50.828;6.440;2022-11-21T05:44:04;17.33;;;6.95;;
19554;SDS011;9924;50.828;6.440;2022-11-21T05:46:48;11.95;;;6.70;;
19554;SDS011;9924;50.828;6.440;2022-11-21T05:49:33;12.35;;;6.30;;
19554;SDS011;9924;50.828;6.440;2022-11-21T05:52:18;12.15;;;6.20;;
19554;SDS011;9924;50.828;6.440;2022-11-21T05:55:02;11.95;;;7.05;;
19554;SDS011;9924;50.828;6.440;2022-11-21T05:57:47;14.65;;;7.18;;
19554;SDS011;9924;50.828;6.440;2022-11-21T06:00:32;13.77;;;7.00;;
19554;SDS011;9924;50.828;6.440;2022-11-21T06:03:20;14.25;;;7.90;;
19554;SDS011;9924;50.828;6.440;2022-11-21T06:06:12;14.65;;;7.90;;
19554;SDS011;9924;50.828;6.440;2022-11-21T06:09:00;17.05;;;8.13;;
19554;SDS011;9924;50.828;6.440;2022-11-21T06:11:45;16.20;;;7.70;;
19554;SDS011;9924;50.828;6.440;2022-11-21T06:14:30;18.38;;;8.15;;
19554;SDS011;9924;50.828;6.440;2022-11-21T06:17:14;11.23;;;7.35;;
19554;SDS011;9924;50.828;6.440;2022-11-21T06:19:58;14.38;;;7.93;;
19554;SDS011;9924;50.828;6.440;2022-11-21T06:22:43;15.77;;;7.55;;
19554;SDS011;9924;50.828;6.440;2022-11-21T06:25:27;18.20;;;7.78;;
19554;SDS011;9924;50.828;6.440;2022-11-21T06:28:12;13.95;;;7.63;;
19554;SDS011;9924;50.828;6.440;2022-11-21T06:31:01;19.48;;;7.88;;
19554;SDS011;9924;50.828;6.440;2022-11-21T06:33:56;12.93;;;7.00;;
19554;SDS011;9924;50.828;6.440;2022-11-21T06:36:42;12.55;;;7.57;;
19554;SDS011;9924;50.828;6.440;2022-11-21T06:39:27;12.00;;;6.93;;
19554;SDS011;9924;50.828;6.440;2022-11-21T06:42:11;20.77;;;7.50;;
19554;SDS011;9924;50.828;6.440;2022-11-21T06:44:56;16.20;;;6.75;;
19554;SDS011;9924;50.828;6.440;2022-11-21T06:47:45;11.10;;;6.40;;
19554;SDS011;9924;50.828;6.440;2022-11-21T06:51:10;15.50;;;7.25;;
19554;SDS011;9924;50.828;6.440;2022-11-21T06:54:06;16.38;;;6.82;;
19554;SDS011;9924;50.828;6.440;2022-11-21T06:56:53;12.70;;;6.82;;
19554;SDS011;9924;50.828;6.440;2022-11-21T06:59:57;11.13;;;6.55;;
19554;SDS011;9924;50.828;6.440;2022-11-21T07:02:42;15.80;;;7.32;;
19554;SDS011;9924;50.828;6.440;2022-11-21T07:05:28;12.35;;;7.05;;
19554;SDS011;9924;50.828;6.440;2022-11-21T07:08:13;16.83;;;7.97;;
19554;SDS011;9924;50.828;6.440;2022-11-21T07:11:05;16.85;;;7.95;;
19554;SDS011;9924;50.828;6.440;2022-11-21T07:13:51;12.20;;;7.57;;
19554;SDS011;9924;50.828;6.440;2022-11-21T07:16:36;16.73;;;8.35;;
19554;SDS011;9924;50.828;6.440;2022-11-21T07:19:20;17.85;;;9.00;;
19554;SDS011;9924;50.828;6.440;2022-11-21T07:22:06;12.73;;;7.47;;
19554;SDS011;9924;50.828;6.440;2022-11-21T07:24:51;18.33;;;9.10;;
19554;SDS011;9924;50.828;6.440;2022-11-21T07:27:36;16.27;;;9.52;;
19554;SDS011;9924;50.828;6.440;2022-11-21T07:30:21;17.83;;;10.00;;
19554;SDS011;9924;50.828;6.440;2022-11-21T07:33:06;19.55;;;10.43;;
19554;SDS011;9924;50.828;6.440;2022-11-21T07:35:54;16.33;;;11.20;;
19554;SDS011;9924;50.828;6.440;2022-11-21T07:38:40;21.45;;;11.55;;
19554;SDS011;9924;50.828;6.440;2022-11-21T07:41:24;20.77;;;11.27;;
19554;SDS011;9924;50.828;6.440;2022-11-21T07:44:09;20.42;;;12.07;;
19554;SDS011;9924;50.828;6.440;2022-11-21T07:46:54;21.42;;;12.35;;
19554;SDS011;9924;50.828;6.440;2022-11-21T07:49:39;20.35;;;12.07;;
19554;SDS011;9924;50.828;6.440;2022-11-21T07:52:24;26.35;;;12.90;;
19554;SDS011;9924;50.828;6.440;2022-11-21T07:55:08;20.65;;;12.63;;
19554;SDS011;9924;50.828;6.440;2022-11-21T07:58:12;23.92;;;12.00;;
19554;SDS011;9924;50.828;6.440;2022-11-21T08:01:03;26.38;;;12.98;;
19554;SDS011;9924;50.828;6.440;2022-11-21T08:03:49;23.88;;;13.43;;
19554;SDS011;9924;50.828;6.440;2022-11-21T08:06:34;20.58;;;11.40;;
19554;SDS011;9924;50.828;6.440;2022-11-21T08:09:31;20.08;;;11.32;;
19554;SDS011;9924;50.828;6.440;2022-11-21T08:12:16;17.80;;;10.43;;
19554;SDS011;9924;50.828;6.440;2022-11-21T08:15:01;23.50;;;11.07;;
19554;SDS011;9924;50.828;6.440;2022-11-21T08:17:47;15.65;;;9.18;;
19554;SDS011;9924;50.828;6.440;2022-11-21T08:20:32;22.05;;;9.50;;
19554;SDS011;9924;50.828;6.440;2022-11-21T08:23:17;14.18;;;8.55;;
19554;SDS011;9924;50.828;6.440;2022-11-21T08:26:01;19.13;;;8.25;;
19554;SDS011;9924;50.828;6.440;2022-11-21T08:28:46;18.27;;;7.53;;
19554;SDS011;9924;50.828;6.440;2022-11-21T08:31:31;13.85;;;7.47;;
19554;SDS011;9924;50.828;6.440;2022-11-21T08:34:15;16.88;;;7.80;;
19554;SDS011;9924;50.828;6.440;2022-11-21T08:37:00;13.05;;;6.95;;
19554;SDS011;9924;50.828;6.440;2022-11-21T08:39:44;11.68;;;6.32;;
19554;SDS011;9924;50.828;6.440;2022-11-21T08:42:29;11.40;;;6.22;;
19554;SDS011;9924;50.828;6.440;2022-11-21T08:45:14;16.30;;;5.55;;
19554;SDS011;9924;50.828;6.440;2022-11-21T08:47:58;10.02;;;5.15;;
19554;SDS011;9924;50.828;6.440;2022-11-21T08:50:46;14.43;;;5.95;;
19554;SDS011;9924;50.828;6.440;2022-11-21T08:53:31;12.73;;;5.10;;
19554;SDS011;9924;50.828;6.440;2022-11-21T08:56:15;11.93;;;5.72;;
19554;SDS011;9924;50.828;6.440;2022-11-21T08:59:00;8.18;;;4.22;;
19554;SDS011;9924;50.828;6.440;2022-11-21T09:01:45;7.43;;;3.97;;
19554;SDS011;9924;50.828;6.440;2022-11-21T09:04:30;5.45;;;3.33;;
19554;SDS011;9924;50.828;6.440;2022-11-21T09:07:15;7.97;;;3.08;;
19554;SDS011;9924;50.828;6.440;2022-11-21T09:09:59;4.80;;;3.00;;
19554;SDS011;9924;50.828;6.440;2022-11-21T09:12:44;6.53;;;2.53;;
19554;SDS011;9924;50.828;6.440;2022-11-21T09:15:29;6.10;;;2.22;;
19554;SDS011;9924;50.828;6.440;2022-11-21T09:18:33;6.53;;;2.28;;
19554;SDS011;9924;50.828;6.440;2022-11-21T09:21:18;3.38;;;1.58;;
19554;SDS011;9924;50.828;6.440;2022-11-21T09:24:04;3.05;;;1.17;;
19554;SDS011;9924;50.828;6.440;2022-11-21T09:26:49;6.10;;;1.20;;
19554;SDS011;9924;50.828;6.440;2022-11-21T09:29:33;4.72;;;1.25;;
19554;SDS011;9924;50.828;6.440;2022-11-21T09:32:18;7.93;;;1.52;;
19554;SDS011;9924;50.828;6.440;2022-11-21T09:35:03;3.70;;;1.13;;
19554;SDS011;9924;50.828;6.440;2022-11-21T09:37:47;6.85;;;1.02;;
19554;SDS011;9924;50.828;6.440;2022-11-21T09:40:34;5.05;;;1.27;;
19554;SDS011;9924;50.828;6.440;2022-11-21T09:46:42;2.85;;;0.95;;
19554;SDS011;9924;50.828;6.440;2022-11-21T09:49:29;4.40;;;0.80;;
19554;SDS011;9924;50.828;6.440;2022-11-21T09:52:48;3.15;;;1.00;;
19554;SDS011;9924;50.828;6.440;2022-11-21T10:01:12;3.83;;;1.10;;
19554;SDS011;9924;50.828;6.440;2022-11-21T10:03:57;6.95;;;1.10;;
19554;SDS011;9924;50.828;6.440;2022-11-21T10:07:03;2.63;;;0.80;;
19554;SDS011;9924;50.828;6.440;2022-11-21T10:10:05;6.95;;;1.05;;
19554;SDS011;9924;50.828;6.440;2022-11-21T10:16:00;4.43;;;0.85;;
19554;SDS011;9924;50.828;6.440;2022-11-21T10:19:19;2.08;;;1.00;;
19554;SDS011;9924;50.828;6.440;2022-11-21T10:25:43;4.68;;;1.02;;
19554;SDS011;9924;50.828;6.440;2022-11-21T10:28:46;1.98;;;1.20;;
19554;SDS011;9924;50.828;6.440;2022-11-21T10:31:35;2.08;;;1.20;;
19554;SDS011;9924;50.828;6.440;2022-11-21T10:34:23;4.55;;;1.50;;
19554;SDS011;9924;50.828;6.440;2022-11-21T10:37:14;4.35;;;1.30;;
19554;SDS011;9924;50.828;6.440;2022-11-21T10:40:15;4.18;;;1.45;;
19554;SDS011;9924;50.828;6.440;2022-11-21T10:43:40;6.03;;;1.60;;
19554;SDS011;9924;50.828;6.440;2022-11-21T10:46:58;4.90;;;1.10;;
19554;SDS011;9924;50.828;6.440;2022-11-21T10:49:43;4.95;;;0.80;;
19554;SDS011;9924;50.828;6.440;2022-11-21T10:52:33;6.47;;;0.90;;
19554;SDS011;9924;50.828;6.440;2022-11-21T10:55:27;2.40;;;0.73;;
19554;SDS011;9924;50.828;6.440;2022-11-21T10:58:17;5.63;;;1.15;;
19554;SDS011;9924;50.828;6.440;2022-11-21T11:01:02;3.95;;;0.77;;
19554;SDS011;9924;50.828;6.440;2022-11-21T11:03:53;2.80;;;0.77;;
19554;SDS011;9924;50.828;6.440;2022-11-21T11:06:47;4.40;;;1.00;;
19554;SDS011;9924;50.828;6.440;2022-11-21T11:09:32;4.70;;;0.80;;
19554;SDS011;9924;50.828;6.440;2022-11-21T11:12:27;1.65;;;0.80;;
19554;SDS011;9924;50.828;6.440;2022-11-21T11:15:34;3.38;;;0.80;;
19554;SDS011;9924;50.828;6.440;2022-11-21T11:18:23;2.03;;;0.50;;
19554;SDS011;9924;50.828;6.440;2022-11-21T11:21:13;1.85;;;0.60;;
19554;SDS011;9924;50.828;6.440;2022-11-21T11:24:05;1.48;;;0.50;;
19554;SDS011;9924;50.828;6.440;2022-11-21T11:26:59;0.77;;;0.50;;
19554;SDS011;9924;50.828;6.440;2022-11-21T11:29:49;2.70;;;0.70;;
19554;SDS011;9924;50.828;6.440;2022-11-21T11:32:37;3.53;;;0.70;;
19554;SDS011;9924;50.828;6.440;2022-11-21T11:35:23;1.98;;;0.73;;
19554;SDS011;9924;50.828;6.440;2022-11-21T11:38:12;3.53;;;1.00;;
19554;SDS011;9924;50.828;6.440;2022-11-21T11:40:58;4.30;;;0.93;;
19554;SDS011;9924;50.828;6.440;2022-11-21T11:44:01;3.95;;;1.17;;
19554;SDS011;9924;50.828;6.440;2022-11-21T11:47:17;5.60;;;1.10;;
19554;SDS011;9924;50.828;6.440;2022-11-21T11:50:18;1.80;;;0.85;;
19554;SDS011;9924;50.828;6.440;2022-11-21T11:56:51;3.00;;;1.08;;
19554;SDS011;9924;50.828;6.440;2022-11-21T11:59:56;2.55;;;0.80;;
19554;SDS011;9924;50.828;6.440;2022-11-21T12:09:37;3.47;;;0.80;;
19554;SDS011;9924;50.828;6.440;2022-11-21T12:12:48;2.10;;;1.00;;
19554;SDS011;9924;50.828;6.440;2022-11-21T12:15:54;1.50;;;0.90;;
19554;SDS011;9924;50.828;6.440;2022-11-21T12:21:33;3.42;;;1.15;;
19554;SDS011;9924;50.828;6.440;2022-11-21T12:24:17;3.20;;;0.75;;
19554;SDS011;9924;50.828;6.440;2022-11-21T12:27:27;3.47;;;1.00;;
19554;SDS011;9924;50.828;6.440;2022-11-21T12:30:19;3.13;;;0.82;;
19554;SDS011;9924;50.828;6.440;2022-11-21T12:33:21;2.65;;;1.02;;
19554;SDS011;9924;50.828;6.440;2022-11-21T12:36:09;3.45;;;1.00;;
19554;SDS011;9924;50.828;6.440;2022-11-21T12:45:29;3.22;;;1.23;;
19554;SDS011;9924;50.828;6.440;2022-11-21T12:48:19;6.22;;;1.13;;
19554;SDS011;9924;50.828;6.440;2022-11-21T12:58:22;5.95;;;1.10;;
19554;SDS011;9924;50.828;6.440;2022-11-21T13:04:38;3.50;;;1.20;;
19554;SDS011;9924;50.828;6.440;2022-11-21T13:07:26;3.05;;;1.00;;
19554;SDS011;9924;50.828;6.440;2022-11-21T13:10:14;5.97;;;1.40;;
19554;SDS011;9924;50.828;6.440;2022-11-21T13:16:01;3.72;;;1.15;;
19554;SDS011;9924;50.828;6.440;2022-11-21T13:18:52;5.28;;;1.20;;
19554;SDS011;9924;50.828;6.440;2022-11-21T13:21:46;4.35;;;1.42;;
19554;SDS011;9924;50.828;6.440;2022-11-21T13:27:41;4.07;;;1.92;;
19554;SDS011;9924;50.828;6.440;2022-11-21T13:30:27;9.05;;;1.70;;
19554;SDS011;9924;50.828;6.440;2022-11-21T13:33:57;4.90;;;1.50;;
19554;SDS011;9924;50.828;6.440;2022-11-21T13:42:03;6.50;;;1.65;;
19554;SDS011;9924;50.828;6.440;2022-11-21T13:51:13;9.73;;;1.58;;
19554;SDS011;9924;50.828;6.440;2022-11-21T14:06:37;6.72;;;1.83;;
19554;SDS011;9924;50.828;6.440;2022-11-21T14:09:30;3.90;;;1.60;;
19554;SDS011;9924;50.828;6.440;2022-11-21T14:15:10;6.85;;;2.00;;
19554;SDS011;9924;50.828;6.440;2022-11-21T14:18:11;9.23;;;1.83;;
19554;SDS011;9924;50.828;6.440;2022-11-21T14:21:04;8.07;;;1.60;;
19554;SDS011;9924;50.828;6.440;2022-11-21T14:23:51;6.30;;;1.60;;
19554;SDS011;9924;50.828;6.440;2022-11-21T14:26:44;12.52;;;2.20;;
19554;SDS011;9924;50.828;6.440;2022-11-21T14:29:38;7.45;;;2.33;;
19554;SDS011;9924;50.828;6.440;2022-11-21T14:32:27;11.38;;;1.95;;
19554;SDS011;9924;50.828;6.440;2022-11-21T14:35:18;8.35;;;2.03;;
19554;SDS011;9924;50.828;6.440;2022-11-21T14:41:43;9.05;;;1.95;;
19554;SDS011;9924;50.828;6.440;2022-11-21T14:48:39;7.88;;;1.83;;
19554;SDS011;9924;50.828;6.440;2022-11-21T14:52:26;9.13;;;1.95;;
19554;SDS011;9924;50.828;6.440;2022-11-21T14:55:55;9.32;;;1.80;;
19554;SDS011;9924;50.828;6.440;2022-11-21T14:58:43;4.80;;;1.80;;
19554;SDS011;9924;50.828;6.440;2022-11-21T15:01:31;8.20;;;1.88;;
19554;SDS011;9924;50.828;6.440;2022-11-21T15:04:26;11.02;;;1.90;;
19554;SDS011;9924;50.828;6.440;2022-11-21T15:07:26;10.82;;;2.15;;
19554;SDS011;9924;50.828;6.440;2022-11-21T15:10:18;5.40;;;2.05;;
19554;SDS011;9924;50.828;6.440;2022-11-21T15:13:09;9.35;;;2.22;;
19554;SDS011;9924;50.828;6.440;2022-11-21T15:15:58;9.75;;;2.17;;
19554;SDS011;9924;50.828;6.440;2022-11-21T15:18:43;8.77;;;2.85;;
19554;SDS011;9924;50.828;6.440;2022-11-21T15:21:27;8.00;;;2.33;;
19554;SDS011;9924;50.828;6.440;2022-11-21T15:36:11;6.20;;;2.60;;
19554;SDS011;9924;50.828;6.440;2022-11-21T15:41:46;14.75;;;2.90;;
19554;SDS011;9924;50.828;6.440;2022-11-21T15:44:33;7.30;;;2.80;;
19554;SDS011;9924;50.828;6.440;2022-11-21T15:47:18;11.38;;;3.17;;
19554;SDS011;9924;50.828;6.440;2022-11-21T15:50:03;9.35;;;2.80;;
19554;SDS011;9924;50.828;6.440;2022-11-21T15:52:49;12.70;;;3.00;;
19554;SDS011;9924;50.828;6.440;2022-11-21T15:55:34;5.00;;;2.28;;
19554;SDS011;9924;50.828;6.440;2022-11-21T15:58:20;8.13;;;2.78;;
19554;SDS011;9924;50.828;6.440;2022-11-21T16:01:10;14.52;;;3.03;;
19554;SDS011;9924;50.828;6.440;2022-11-21T16:04:09;12.73;;;3.00;;
19554;SDS011;9924;50.828;6.440;2022-11-21T16:06:54;9.60;;;3.13;;
19554;SDS011;9924;50.828;6.440;2022-11-21T16:09:39;9.90;;;2.83;;
19554;SDS011;9924;50.828;6.440;2022-11-21T16:12:28;9.27;;;2.90;;
19554;SDS011;9924;50.828;6.440;2022-11-21T16:15:13;7.30;;;2.40;;
19554;SDS011;9924;50.828;6.440;2022-11-21T16:17:57;9.25;;;2.45;;
19554;SDS011;9924;50.828;6.440;2022-11-21T16:20:42;12.38;;;3.88;;
19554;SDS011;9924;50.828;6.440;2022-11-21T16:23:27;7.95;;;2.60;;
19554;SDS011;9924;50.828;6.440;2022-11-21T16:26:12;7.28;;;2.03;;
19554;SDS011;9924;50.828;6.440;2022-11-21T16:28:57;10.20;;;2.28;;
19554;SDS011;9924;50.828;6.440;2022-11-21T16:31:46;6.30;;;2.30;;
19554;SDS011;9924;50.828;6.440;2022-11-21T16:34:33;8.82;;;2.95;;
19554;SDS011;9924;50.828;6.440;2022-11-21T16:37:18;10.95;;;2.88;;
19554;SDS011;9924;50.828;6.440;2022-11-21T16:40:03;5.65;;;2.03;;
19554;SDS011;9924;50.828;6.440;2022-11-21T16:42:48;10.45;;;2.60;;
19554;SDS011;9924;50.828;6.440;2022-11-21T16:45:34;7.85;;;2.00;;
19554;SDS011;9924;50.828;6.440;2022-11-21T16:48:19;8.63;;;2.25;;
19554;SDS011;9924;50.828;6.440;2022-11-21T16:51:10;8.82;;;2.40;;
19554;SDS011;9924;50.828;6.440;2022-11-21T16:54:00;6.00;;;2.30;;
19554;SDS011;9924;50.828;6.440;2022-11-21T16:56:45;7.78;;;2.15;;
19554;SDS011;9924;50.828;6.440;2022-11-21T16:59:32;9.93;;;3.53;;
19554;SDS011;9924;50.828;6.440;2022-11-21T17:02:17;15.27;;;2.70;;
19554;SDS011;9924;50.828;6.440;2022-11-21T17:05:01;6.28;;;1.80;;
19554;SDS011;9924;50.828;6.440;2022-11-21T17:07:46;10.23;;;2.17;;
19554;SDS011;9924;50.828;6.440;2022-11-21T17:10:32;10.13;;;1.80;;
19554;SDS011;9924;50.828;6.440;2022-11-21T17:13:17;11.32;;;2.30;;
19554;SDS011;9924;50.828;6.440;2022-11-21T17:16:09;8.43;;;2.00;;
19554;SDS011;9924;50.828;6.440;2022-11-21T17:18:59;7.97;;;2.22;;
19554;SDS011;9924;50.828;6.440;2022-11-21T17:21:53;8.50;;;2.45;;
19554;SDS011;9924;50.828;6.440;2022-11-21T17:25:26;8.35;;;2.03;;
19554;SDS011;9924;50.828;6.440;2022-11-21T17:28:12;7.22;;;2.03;;
19554;SDS011;9924;50.828;6.440;2022-11-21T17:31:08;11.55;;;2.20;;
19554;SDS011;9924;50.828;6.440;2022-11-21T17:33:55;8.75;;;2.10;;
19554;SDS011;9924;50.828;6.440;2022-11-21T17:36:43;11.45;;;2.05;;
19554;SDS011;9924;50.828;6.440;2022-11-21T17:39:28;10.75;;;1.88;;
19554;SDS011;9924;50.828;6.440;2022-11-21T17:42:13;9.38;;;1.90;;
19554;SDS011;9924;50.828;6.440;2022-11-21T17:44:57;9.13;;;1.90;;
19554;SDS011;9924;50.828;6.440;2022-11-21T17:47:43;9.00;;;2.25;;
19554;SDS011;9924;50.828;6.440;2022-11-21T17:50:29;10.07;;;1.98;;
19554;SDS011;9924;50.828;6.440;2022-11-21T17:53:14;11.25;;;3.85;;
19554;SDS011;9924;50.828;6.440;2022-11-21T17:55:59;5.70;;;2.65;;
19554;SDS011;9924;50.828;6.440;2022-11-21T17:58:45;7.85;;;2.20;;
19554;SDS011;9924;50.828;6.440;2022-11-21T18:01:29;5.00;;;1.90;;
19554;SDS011;9924;50.828;6.440;2022-11-21T18:04:14;11.95;;;1.95;;
19554;SDS011;9924;50.828;6.440;2022-11-21T18:07:00;14.13;;;2.38;;
19554;SDS011;9924;50.828;6.440;2022-11-21T18:09:46;12.70;;;2.13;;
19554;SDS011;9924;50.828;6.440;2022-11-21T18:12:31;8.70;;;2.50;;
19554;SDS011;9924;50.828;6.440;2022-11-21T18:15:16;10.63;;;2.80;;
19554;SDS011;9924;50.828;6.440;2022-11-21T18:18:00;12.38;;;2.75;;
19554;SDS011;9924;50.828;6.440;2022-11-21T18:20:46;7.60;;;2.50;;
19554;SDS011;9924;50.828;6.440;2022-11-21T18:23:30;12.25;;;3.45;;
19554;SDS011;9924;50.828;6.440;2022-11-21T18:26:18;9.95;;;2.42;;
19554;SDS011;9924;50.828;6.440;2022-11-21T18:29:06;8.07;;;3.15;;
19554;SDS011;9924;50.828;6.440;2022-11-21T18:31:52;8.90;;;2.80;;
19554;SDS011;9924;50.828;6.440;2022-11-21T18:34:37;6.63;;;3.13;;
19554;SDS011;9924;50.828;6.440;2022-11-21T18:37:22;8.93;;;3.05;;
19554;SDS011;9924;50.828;6.440;2022-11-21T18:40:06;8.40;;;2.83;;
19554;SDS011;9924;50.828;6.440;2022-11-21T18:42:55;10.57;;;3.03;;
19554;SDS011;9924;50.828;6.440;2022-11-21T18:45:39;7.45;;;3.55;;
19554;SDS011;9924;50.828;6.440;2022-11-21T18:48:24;11.68;;;3.33;;
19554;SDS011;9924;50.828;6.440;2022-11-21T18:51:11;10.00;;;3.47;;